createdAt,value
2019-03-08T00:00:52.933Z,130.40
2019-03-08T00:03:23.623Z,139.47
2019-03-08T00:05:51.186Z,134.77
2019-03-08T00:08:19.735Z,140.57
2019-03-08T00:10:58.092Z,126.87
2019-03-08T00:13:25.684Z,125.37
2019-03-08T00:15:53.267Z,125.20
2019-03-08T00:18:20.931Z,131.50
2019-03-08T00:20:48.445Z,142.57
2019-03-08T00:23:15.925Z,136.23
2019-03-08T00:25:43.717Z,130.77
2019-03-08T00:28:11.557Z,141.33
2019-03-08T00:30:39.074Z,126.70
2019-03-08T00:33:07.744Z,131.63
2019-03-08T00:35:35.223Z,121.90
2019-03-08T00:38:05.024Z,126.50
2019-03-08T00:40:32.489Z,126.90
2019-03-08T00:43:00.229Z,135.63
2019-03-08T00:45:27.642Z,136.93
2019-03-08T00:47:55.163Z,126.50
2019-03-08T00:50:22.500Z,129.43
2019-03-08T00:52:49.993Z,131.40
2019-03-08T00:55:17.707Z,135.47
2019-03-08T00:57:45.171Z,132.47
2019-03-08T01:00:14.825Z,140.10
2019-03-08T01:02:43.434Z,133.63
2019-03-08T01:05:11.466Z,132.30
2019-03-08T01:07:40.221Z,130.07
2019-03-08T01:10:12.147Z,134.00
2019-03-08T01:12:39.840Z,130.60
2019-03-08T01:15:11.091Z,139.23
2019-03-08T01:17:38.960Z,128.03
2019-03-08T01:20:08.529Z,132.03
2019-03-08T01:22:36.171Z,128.53
2019-03-08T01:25:04.622Z,129.77
2019-03-08T01:27:32.105Z,127.90
2019-03-08T01:29:59.433Z,128.27
2019-03-08T01:32:27.005Z,130.87
2019-03-08T01:34:54.697Z,134.63
2019-03-08T01:37:22.190Z,135.60
2019-03-08T01:39:49.766Z,139.60
2019-03-08T01:42:17.113Z,133.00
2019-03-08T01:44:45.117Z,132.00
2019-03-08T01:47:12.607Z,130.37
2019-03-08T01:49:40.234Z,136.03
2019-03-08T01:52:07.787Z,153.40
2019-03-08T01:54:35.219Z,133.70
2019-03-08T01:57:02.984Z,130.70
2019-03-08T01:59:30.545Z,129.83
2019-03-08T02:01:57.898Z,132.07
2019-03-08T02:04:25.485Z,136.60
2019-03-08T02:06:53.147Z,133.00
2019-03-08T02:09:20.645Z,140.73
2019-03-08T02:11:48.126Z,138.47
2019-03-08T02:14:15.677Z,137.10
2019-03-08T02:16:43.284Z,129.60
2019-03-08T02:19:10.734Z,141.20
2019-03-08T02:21:38.177Z,135.03
2019-03-08T02:24:05.689Z,147.17
2019-03-08T02:26:33.392Z,131.97
2019-03-08T02:29:00.772Z,134.07
2019-03-08T02:31:28.534Z,130.23
2019-03-08T02:33:55.985Z,131.40
2019-03-08T02:36:23.451Z,130.03
2019-03-08T02:38:51.104Z,137.63
2019-03-08T02:41:18.706Z,132.83
2019-03-08T02:43:46.055Z,132.57
2019-03-08T02:46:13.514Z,129.60
2019-03-08T02:48:41.116Z,133.87
2019-03-08T02:51:08.604Z,131.33
2019-03-08T02:53:36.859Z,142.10
2019-03-08T02:56:12.448Z,115.10
2019-03-08T02:58:39.981Z,127.10
2019-03-08T03:01:07.410Z,129.47
2019-03-08T03:03:34.766Z,128.13
2019-03-08T03:06:02.226Z,128.27
2019-03-08T03:08:29.711Z,130.33
2019-03-08T03:10:57.162Z,137.83
2019-03-08T03:13:25.378Z,125.70
2019-03-08T03:15:52.732Z,129.40
2019-03-08T03:18:21.457Z,135.50
2019-03-08T03:20:49.078Z,134.07
2019-03-08T03:23:16.418Z,129.57
2019-03-08T03:25:43.909Z,138.30
2019-03-08T03:28:11.376Z,129.57
2019-03-08T03:30:38.883Z,125.20
2019-03-08T03:33:06.258Z,120.87
2019-03-08T03:35:33.650Z,126.50
2019-03-08T03:38:02.941Z,125.33
2019-03-08T03:40:30.713Z,125.20
2019-03-08T03:43:01.857Z,143.17
2019-03-08T03:45:29.441Z,125.20
2019-03-08T03:47:56.765Z,129.33
2019-03-08T03:50:24.520Z,137.33
2019-03-08T03:52:52.024Z,137.93
2019-03-08T03:55:19.667Z,129.67
2019-03-08T03:57:47.076Z,123.63
2019-03-08T04:00:15.716Z,133.40
2019-03-08T04:02:43.540Z,121.90
2019-03-08T04:05:11.523Z,124.80
2019-03-08T04:07:39.134Z,132.53
2019-03-08T04:10:08.216Z,124.90
2019-03-08T04:12:35.733Z,118.00
2019-03-08T04:15:06.183Z,132.53
2019-03-08T04:17:33.893Z,128.47
2019-03-08T04:20:01.927Z,127.33
2019-03-08T04:22:29.666Z,121.43
2019-03-08T04:24:57.023Z,135.60
2019-03-08T04:27:24.581Z,122.97
2019-03-08T04:29:53.024Z,129.90
2019-03-08T04:32:21.021Z,126.60
2019-03-08T04:34:48.478Z,131.77
2019-03-08T04:37:15.884Z,122.40
2019-03-08T04:39:43.568Z,125.70
2019-03-08T04:42:10.935Z,118.50
2019-03-08T04:44:38.419Z,132.53
2019-03-08T04:47:05.989Z,119.83
2019-03-08T04:49:33.425Z,128.37
2019-03-08T04:52:00.899Z,122.90
2019-03-08T04:54:29.554Z,125.33
2019-03-08T04:56:56.957Z,123.27
2019-03-08T04:59:24.317Z,126.47
2019-03-08T05:01:51.703Z,117.83
2019-03-08T05:04:19.249Z,126.67
2019-03-08T05:06:46.559Z,123.57
2019-03-08T05:09:14.191Z,137.47
2019-03-08T05:11:41.594Z,128.63
2019-03-08T05:14:09.098Z,127.07
2019-03-08T05:16:36.436Z,120.43
2019-03-08T05:19:03.864Z,130.10
2019-03-08T05:21:31.309Z,113.63
2019-03-08T05:23:58.647Z,125.03
2019-03-08T05:26:26.020Z,119.73
2019-03-08T05:28:53.427Z,125.80
2019-03-08T05:31:20.876Z,123.47
2019-03-08T05:33:48.199Z,124.83
2019-03-08T05:36:15.746Z,123.13
2019-03-08T05:38:43.170Z,121.60
2019-03-08T05:41:10.475Z,124.73
2019-03-08T05:43:37.866Z,123.10
2019-03-08T05:46:05.185Z,120.93
2019-03-08T05:48:32.712Z,119.47
2019-03-08T05:51:00.100Z,123.00
2019-03-08T05:53:27.425Z,115.30
2019-03-08T05:55:54.739Z,120.33
2019-03-08T05:58:22.108Z,122.30
2019-03-08T06:00:49.459Z,124.27
2019-03-08T06:03:16.777Z,120.80
2019-03-08T06:05:44.227Z,116.33
2019-03-08T06:08:11.623Z,124.73
2019-03-08T06:10:39.786Z,113.03
2019-03-08T06:13:08.346Z,118.03
2019-03-08T06:15:36.296Z,111.87
2019-03-08T06:18:03.903Z,121.13
2019-03-08T06:20:31.465Z,115.00
2019-03-08T06:22:58.907Z,121.20
2019-03-08T06:25:26.239Z,115.47
2019-03-08T06:27:53.628Z,113.77
2019-03-08T06:30:21.216Z,112.90
2019-03-08T06:32:49.006Z,109.23
2019-03-08T06:35:16.336Z,113.87
2019-03-08T06:37:43.873Z,112.57
2019-03-08T06:40:11.420Z,116.83
2019-03-08T06:42:39.221Z,111.77
2019-03-08T06:45:09.001Z,114.43
2019-03-08T06:47:36.627Z,105.97
2019-03-08T06:50:04.836Z,113.30
2019-03-08T06:52:32.242Z,110.10
2019-03-08T06:54:59.715Z,117.60
2019-03-08T06:57:27.124Z,110.50
2019-03-08T06:59:59.372Z,111.13
2019-03-08T07:02:26.897Z,110.30
2019-03-08T07:04:54.441Z,115.57
2019-03-08T07:07:21.746Z,109.70
2019-03-08T07:09:49.045Z,121.33
2019-03-08T07:12:16.372Z,116.10
2019-03-08T07:14:43.876Z,122.73
2019-03-08T07:17:11.300Z,110.07
2019-03-08T07:19:48.079Z,122.23
2019-03-08T07:22:35.045Z,116.17
2019-03-08T07:25:18.367Z,117.37
2019-03-08T07:27:58.834Z,115.60
2019-03-08T07:30:46.226Z,115.90
2019-03-08T07:33:20.344Z,116.00
2019-03-08T07:35:55.451Z,113.00
2019-03-08T07:38:31.404Z,120.00
2019-03-08T07:41:16.834Z,114.93
2019-03-08T07:43:58.883Z,113.37
2019-03-08T07:46:33.778Z,110.93
2019-03-08T07:49:16.918Z,114.40
2019-03-08T07:51:55.358Z,118.47
2019-03-08T07:54:41.597Z,122.93
2019-03-08T07:57:27.363Z,108.90
2019-03-08T08:00:29.938Z,124.80
2019-03-08T08:03:34.773Z,109.90
2019-03-08T08:06:06.721Z,111.53
2019-03-08T08:08:51.621Z,115.57
2019-03-08T08:11:30.246Z,113.40
2019-03-08T08:14:17.276Z,127.33
2019-03-08T08:16:52.717Z,112.10
2019-03-08T08:19:42.806Z,120.10
2019-03-08T08:22:25.657Z,112.67
2019-03-08T08:25:02.987Z,119.10
2019-03-08T08:27:38.836Z,118.87
2019-03-08T08:30:15.233Z,110.83
2019-03-08T08:33:01.780Z,119.93
2019-03-08T08:35:47.362Z,113.07
2019-03-08T08:38:21.336Z,114.33
2019-03-08T08:41:11.373Z,113.97
2019-03-08T08:44:01.376Z,115.77
2019-03-08T08:46:55.015Z,115.43
2019-03-08T08:49:42.188Z,128.73
2019-03-08T08:52:35.709Z,116.63
2019-03-08T08:55:10.850Z,121.20
2019-03-08T08:57:46.792Z,112.43
2019-03-08T09:00:36.881Z,118.10
2019-03-08T09:03:14.034Z,119.73
2019-03-08T09:06:03.774Z,116.20
2019-03-08T09:08:42.756Z,115.53
2019-03-08T09:11:19.038Z,114.47
2019-03-08T09:13:53.802Z,112.87
2019-03-08T09:16:41.685Z,115.13
2019-03-08T09:19:25.003Z,130.47
2019-03-08T09:22:02.288Z,120.60
2019-03-08T09:24:36.160Z,133.10
2019-03-08T09:27:41.537Z,123.77
2019-03-08T09:30:17.147Z,123.60
2019-03-08T09:33:05.119Z,119.07
2019-03-08T09:35:41.530Z,118.80
2019-03-08T09:38:27.310Z,122.50
2019-03-08T09:41:15.217Z,122.50
2019-03-08T09:44:01.268Z,114.40
2019-03-08T09:46:51.028Z,114.87
2019-03-08T09:49:44.288Z,143.67
2019-03-08T09:52:34.552Z,114.73
2019-03-08T09:55:24.388Z,125.07
2019-03-08T09:58:08.844Z,119.03
2019-03-08T10:00:42.908Z,114.33
2019-03-08T10:03:16.704Z,124.80
2019-03-08T10:06:03.756Z,118.80
2019-03-08T10:08:49.385Z,122.40
2019-03-08T10:11:31.416Z,123.60
2019-03-08T10:14:25.295Z,123.77
2019-03-08T10:17:24.254Z,117.93
2019-03-08T10:20:04.133Z,122.87
2019-03-08T10:23:00.527Z,113.23
2019-03-08T10:25:54.669Z,122.33
2019-03-08T10:28:44.615Z,114.97
2019-03-08T10:31:18.734Z,117.60
2019-03-08T10:33:56.957Z,119.40
2019-03-08T10:36:59.925Z,127.37
2019-03-08T10:39:54.302Z,131.87
2019-03-08T10:42:41.476Z,120.87
2019-03-08T10:45:29.102Z,117.57
2019-03-08T10:48:05.873Z,125.87
2019-03-08T10:50:41.943Z,126.37
2019-03-08T10:53:32.818Z,121.23
2019-03-08T10:56:20.057Z,119.30
2019-03-08T10:58:59.939Z,117.43
2019-03-08T11:01:44.113Z,121.77
2019-03-08T11:04:21.657Z,131.13
2019-03-08T11:07:11.394Z,126.23
2019-03-08T11:09:57.265Z,135.37
2019-03-08T11:12:42.948Z,119.90
2019-03-08T11:15:29.243Z,124.67
2019-03-08T11:18:08.733Z,131.57
2019-03-08T11:20:54.334Z,128.63
2019-03-08T11:23:42.632Z,125.43
2019-03-08T11:26:35.451Z,119.13
2019-03-08T11:29:23.170Z,143.43
2019-03-08T11:32:10.322Z,126.23
2019-03-08T11:34:58.216Z,132.07
2019-03-08T11:37:39.841Z,124.83
2019-03-08T11:40:27.486Z,132.13
2019-03-08T11:43:04.735Z,127.73
2019-03-08T11:45:55.769Z,130.13
2019-03-08T11:49:00.755Z,130.10
2019-03-08T11:51:46.012Z,132.77
2019-03-08T11:54:29.733Z,131.07
2019-03-08T11:57:15.182Z,126.57
2019-03-08T11:59:55.485Z,136.17
2019-03-08T12:02:37.590Z,122.67
2019-03-08T12:05:16.363Z,127.17
2019-03-08T12:07:51.281Z,124.53
2019-03-08T12:10:26.921Z,130.90
2019-03-08T12:13:08.087Z,130.67
2019-03-08T12:15:54.921Z,130.80
2019-03-08T12:18:34.334Z,125.23
2019-03-08T12:21:26.049Z,121.87
2019-03-08T12:24:17.007Z,131.37
2019-03-08T12:26:57.410Z,131.00
2019-03-08T12:29:35.079Z,136.27
2019-03-08T12:32:12.178Z,144.93
2019-03-08T12:35:01.951Z,143.90
2019-03-08T12:37:52.855Z,144.50
2019-03-08T12:40:42.800Z,140.23
2019-03-08T12:43:28.202Z,139.50
2019-03-08T12:46:21.121Z,143.30
2019-03-08T12:48:57.918Z,133.43
2019-03-08T12:51:29.687Z,133.77
2019-03-08T12:54:05.264Z,144.57
2019-03-08T12:56:40.537Z,160.40
2019-03-08T12:59:27.346Z,149.07
2019-03-08T13:02:05.597Z,139.73
2019-03-08T13:04:46.798Z,146.53
2019-03-08T13:07:32.459Z,144.77
2019-03-08T13:10:18.393Z,145.37
2019-03-08T13:12:46.081Z,142.83
2019-03-08T13:15:13.990Z,146.57
2019-03-08T13:17:41.319Z,136.73
2019-03-08T13:20:13.866Z,141.20
2019-03-08T13:22:42.220Z,147.60
2019-03-08T13:25:09.950Z,143.77
2019-03-08T13:27:37.887Z,141.30
2019-03-08T13:30:13.332Z,143.73
2019-03-08T13:32:40.673Z,143.63
2019-03-08T13:35:09.403Z,133.83
2019-03-08T13:37:36.854Z,135.63
2019-03-08T13:40:05.343Z,145.93
2019-03-08T13:42:32.691Z,142.40
2019-03-08T13:45:00.053Z,138.07
2019-03-08T13:47:28.358Z,162.47
2019-03-08T13:49:55.992Z,144.23
2019-03-08T13:52:23.366Z,138.37
2019-03-08T13:54:50.740Z,147.70
2019-03-08T13:57:18.615Z,152.13
2019-03-08T13:59:46.298Z,148.10
2019-03-08T14:02:13.865Z,135.60
2019-03-08T14:04:42.139Z,142.60
2019-03-08T14:07:09.719Z,136.10
2019-03-08T14:09:37.836Z,140.03
2019-03-08T14:12:05.358Z,145.40
2019-03-08T14:14:32.714Z,147.23
2019-03-08T14:17:00.530Z,137.43
2019-03-08T14:19:28.566Z,154.50
2019-03-08T14:21:55.967Z,139.57
2019-03-08T14:24:23.397Z,144.20
2019-03-08T14:26:51.734Z,145.63
2019-03-08T14:29:22.437Z,157.70
2019-03-08T14:32:21.313Z,139.97
2019-03-08T14:34:53.573Z,149.90
2019-03-08T14:37:19.852Z,145.57
2019-03-08T14:39:49.108Z,145.97
2019-03-08T14:42:41.512Z,140.90
2019-03-08T14:45:19.105Z,154.00
2019-03-08T14:47:49.450Z,139.13
2019-03-08T14:50:17.384Z,137.57
2019-03-08T14:52:45.456Z,134.20
2019-03-08T14:55:19.114Z,136.10
2019-03-08T14:57:46.303Z,132.93
2019-03-08T15:03:48.815Z,137.50
2019-03-08T15:06:17.078Z,141.50
2019-03-08T15:08:44.729Z,132.93
2019-03-08T15:11:12.634Z,130.03
2019-03-08T15:13:40.651Z,128.53
2019-03-08T15:16:08.376Z,127.10
2019-03-08T15:18:35.967Z,122.60
2019-03-08T15:21:03.429Z,124.93
2019-03-08T15:23:30.862Z,131.50
2019-03-08T15:25:59.025Z,125.43
2019-03-08T15:28:28.127Z,125.67
2019-03-08T15:30:57.617Z,123.00
2019-03-08T15:33:25.958Z,126.13
2019-03-08T15:35:55.314Z,118.57
2019-03-08T15:38:23.274Z,120.67
2019-03-08T15:40:50.878Z,115.63
2019-03-08T15:43:18.309Z,126.13
2019-03-08T15:45:46.176Z,122.13
2019-03-08T15:48:14.520Z,119.57
2019-03-08T15:50:46.873Z,111.60
2019-03-08T15:53:12.956Z,126.30
2019-03-08T15:55:41.561Z,120.00
2019-03-08T15:58:09.218Z,123.20
2019-03-08T16:00:36.635Z,129.13
2019-03-08T16:03:04.312Z,124.03
2019-03-08T16:05:31.713Z,118.97
2019-03-08T16:08:03.711Z,125.73
2019-03-08T16:10:31.703Z,122.20
2019-03-08T16:13:02.698Z,117.00
2019-03-08T16:15:29.358Z,111.43
2019-03-08T16:17:56.914Z,121.70
2019-03-08T16:20:24.401Z,114.10
2019-03-08T16:22:52.237Z,115.93
2019-03-08T16:25:19.755Z,112.47
2019-03-08T16:27:47.275Z,112.63
2019-03-08T16:30:27.809Z,118.67
2019-03-08T16:33:10.994Z,115.57
2019-03-08T16:35:45.341Z,115.57
2019-03-08T16:38:20.983Z,112.30
2019-03-08T16:41:06.351Z,113.67
2019-03-08T16:43:42.123Z,118.43
2019-03-08T16:46:21.297Z,111.10
2019-03-08T16:48:58.587Z,112.77
2019-03-08T16:51:43.413Z,114.97
2019-03-08T16:54:17.466Z,128.70
2019-03-08T16:57:08.170Z,113.80
2019-03-08T16:59:49.040Z,125.50
2019-03-08T17:02:30.560Z,125.23
2019-03-08T17:05:27.141Z,116.50
2019-03-08T17:08:07.947Z,113.70
2019-03-08T17:11:01.019Z,119.20
2019-03-08T17:13:40.539Z,115.77
2019-03-08T17:16:32.165Z,130.87
2019-03-08T17:19:18.277Z,122.23
2019-03-08T17:22:11.496Z,129.53
2019-03-08T17:24:51.943Z,133.30
2019-03-08T17:27:51.122Z,119.70
2019-03-08T17:30:49.671Z,120.67
2019-03-08T17:33:29.461Z,121.50
2019-03-08T17:36:02.410Z,131.70
2019-03-08T17:38:39.023Z,119.57
2019-03-08T17:41:26.310Z,115.40
2019-03-08T17:44:12.500Z,129.00
2019-03-08T17:46:57.338Z,134.83
2019-03-08T17:49:46.199Z,138.13
2019-03-08T17:52:42.698Z,133.67
2019-03-08T17:55:20.591Z,128.40
2019-03-08T17:58:10.305Z,119.33
2019-03-08T18:00:47.428Z,116.17
2019-03-08T18:03:33.063Z,125.57
2019-03-08T18:06:21.200Z,117.67
2019-03-08T18:09:01.941Z,127.13
2019-03-08T18:11:55.007Z,134.20
2019-03-08T18:14:29.402Z,140.03
2019-03-08T18:17:02.992Z,119.07
2019-03-08T18:19:50.309Z,129.03
2019-03-08T18:22:37.319Z,117.73
2019-03-08T18:25:21.779Z,117.87
2019-03-08T18:28:07.405Z,117.53
2019-03-08T18:30:54.000Z,123.00
2019-03-08T18:33:40.076Z,130.37
2019-03-08T18:36:23.091Z,121.37
2019-03-08T18:39:10.680Z,121.67
2019-03-08T18:42:00.044Z,130.63
2019-03-08T18:44:45.700Z,130.43
2019-03-08T18:47:46.154Z,132.70
2019-03-08T18:50:35.704Z,141.83
2019-03-08T18:53:35.004Z,127.93
2019-03-08T18:56:21.049Z,134.80
2019-03-08T18:59:12.284Z,123.67
2019-03-08T19:02:15.434Z,130.37
2019-03-08T19:05:00.931Z,132.43
2019-03-08T19:07:37.970Z,120.17
2019-03-08T19:10:17.575Z,127.57
2019-03-08T19:13:15.481Z,133.17
2019-03-08T19:16:14.963Z,129.13
2019-03-08T19:19:04.837Z,133.63
2019-03-08T19:21:45.583Z,127.43
2019-03-08T19:24:32.588Z,142.30
2019-03-08T19:27:36.018Z,141.07
2019-03-08T19:30:24.271Z,134.37
2019-03-08T19:33:14.430Z,135.17
2019-03-08T19:35:48.467Z,125.13
2019-03-08T19:38:44.416Z,130.60
2019-03-08T19:41:29.971Z,124.00
2019-03-08T19:44:16.989Z,129.37
2019-03-08T19:47:02.516Z,126.10
2019-03-08T19:49:49.380Z,136.30
2019-03-08T19:52:29.583Z,126.13
2019-03-08T19:55:09.246Z,136.87
2019-03-08T19:57:56.363Z,130.77
2019-03-08T20:00:52.489Z,129.60
2019-03-08T20:03:28.884Z,129.83
2019-03-08T20:06:18.989Z,123.90
2019-03-08T20:08:52.365Z,128.67
2019-03-08T20:11:55.538Z,128.33
2019-03-08T20:14:43.394Z,136.17
2019-03-08T20:17:39.388Z,119.07
2019-03-08T20:20:26.790Z,138.03
2019-03-08T20:23:15.174Z,130.83
2019-03-08T20:26:08.203Z,129.33
2019-03-08T20:29:01.825Z,129.07
2019-03-08T20:31:40.237Z,129.07
2019-03-08T20:34:31.620Z,136.27
2019-03-08T20:37:31.106Z,127.80
2019-03-08T20:40:20.603Z,129.30
2019-03-08T20:42:54.827Z,119.63
2019-03-08T20:45:27.715Z,121.87
2019-03-08T20:47:55.447Z,122.50
2019-03-08T20:50:24.319Z,144.07
2019-03-08T20:52:51.819Z,123.47
2019-03-08T20:55:21.149Z,124.67
2019-03-08T20:57:49.799Z,120.67
2019-03-08T21:00:17.842Z,126.27
2019-03-08T21:02:45.673Z,133.90
2019-03-08T21:05:13.298Z,119.77
2019-03-08T21:07:41.943Z,130.57
2019-03-08T21:10:10.000Z,121.30
2019-03-08T21:12:37.886Z,123.33
2019-03-08T21:15:08.999Z,121.67
2019-03-08T21:17:36.834Z,118.27
2019-03-08T21:20:09.397Z,134.60
2019-03-08T21:22:38.877Z,130.97
2019-03-08T21:25:10.739Z,128.60
2019-03-08T21:27:38.486Z,120.00
2019-03-08T21:30:11.034Z,126.23
2019-03-08T21:32:38.734Z,132.00
2019-03-08T21:35:06.724Z,120.27
2019-03-08T21:37:35.626Z,128.90
2019-03-08T21:40:03.732Z,124.97
2019-03-08T21:42:52.738Z,124.43
2019-03-08T21:45:20.555Z,129.50
2019-03-08T21:47:48.137Z,128.77
2019-03-08T21:50:16.048Z,150.53
2019-03-08T21:52:44.091Z,120.60
2019-03-08T21:55:12.062Z,127.10
2019-03-08T21:57:39.654Z,124.90
2019-03-08T22:00:14.544Z,127.40
2019-03-08T22:02:42.844Z,129.83
2019-03-08T22:05:10.722Z,124.63
2019-03-08T22:07:38.384Z,145.23
2019-03-08T22:10:13.349Z,126.70
2019-03-08T22:12:41.135Z,130.43
2019-03-08T22:15:09.286Z,120.33
2019-03-08T22:17:36.995Z,127.30
2019-03-08T22:20:07.689Z,124.17
2019-03-08T22:22:35.006Z,119.27
2019-03-08T22:25:02.589Z,120.20
2019-03-08T22:27:30.362Z,129.73
2019-03-08T22:29:57.853Z,123.77
2019-03-08T22:32:25.414Z,127.20
2019-03-08T22:34:53.651Z,122.10
2019-03-08T22:37:21.145Z,132.03
2019-03-08T22:39:48.806Z,128.70
2019-03-08T22:42:16.331Z,118.23
2019-03-08T22:44:44.038Z,134.53
2019-03-08T22:47:12.091Z,133.43
2019-03-08T22:49:39.759Z,129.70
2019-03-08T22:52:07.412Z,115.70
2019-03-08T22:54:34.922Z,131.43
2019-03-08T22:57:02.477Z,132.17
2019-03-08T22:59:30.264Z,136.57
2019-03-08T23:02:05.546Z,120.57
2019-03-08T23:04:33.083Z,140.40
2019-03-08T23:07:00.700Z,121.33
2019-03-08T23:09:28.736Z,145.47
2019-03-08T23:11:56.309Z,127.83
2019-03-08T23:14:24.104Z,137.77
2019-03-08T23:16:51.996Z,133.90
2019-03-08T23:19:19.682Z,136.00
2019-03-08T23:21:47.144Z,122.47
2019-03-08T23:24:14.768Z,140.27
2019-03-08T23:27:00.252Z,128.23
2019-03-08T23:29:31.333Z,131.40
2019-03-08T23:32:08.588Z,126.17
2019-03-08T23:34:36.112Z,132.10
2019-03-08T23:37:03.718Z,125.43
2019-03-08T23:39:31.094Z,133.67
2019-03-08T23:41:58.457Z,123.47
2019-03-08T23:44:26.037Z,131.97
2019-03-08T23:46:53.480Z,126.33
2019-03-08T23:49:20.968Z,134.20
2019-03-08T23:51:48.338Z,133.10
2019-03-08T23:54:15.746Z,133.67
2019-03-08T23:56:43.568Z,125.20
2019-03-08T23:59:11.109Z,136.27
